createdAt,value
2019-04-30T00:01:48.567Z,41.17
2019-04-30T00:04:25.403Z,45.77
2019-04-30T00:06:55.602Z,42.03
2019-04-30T00:09:25.826Z,42.80
2019-04-30T00:12:01.047Z,41.47
2019-04-30T00:14:32.140Z,44.57
2019-04-30T00:16:58.413Z,37.83
2019-04-30T00:19:27.927Z,39.90
2019-04-30T00:22:00.348Z,39.47
2019-04-30T00:24:28.613Z,40.07
2019-04-30T00:26:58.082Z,38.60
2019-04-30T00:29:30.838Z,40.53
2019-04-30T00:32:04.492Z,41.27
2019-04-30T00:34:30.845Z,38.00
2019-04-30T00:37:01.016Z,44.03
2019-04-30T00:39:30.517Z,36.47
2019-04-30T00:41:59.991Z,36.30
2019-04-30T00:44:29.522Z,43.13
2019-04-30T00:47:00.687Z,40.80
2019-04-30T00:49:30.122Z,42.47
2019-04-30T00:51:59.587Z,38.23
2019-04-30T00:54:30.793Z,38.47
2019-04-30T00:57:06.306Z,37.77
2019-04-30T00:59:31.331Z,36.50
2019-04-30T01:02:20.184Z,35.73
2019-04-30T01:04:51.257Z,34.47
2019-04-30T01:07:20.992Z,36.60
2019-04-30T01:09:50.491Z,38.07
2019-04-30T01:12:27.520Z,37.50
2019-04-30T01:14:51.185Z,40.50
2019-04-30T01:17:20.666Z,39.37
2019-04-30T01:19:51.233Z,39.97
2019-04-30T01:22:27.755Z,38.43
2019-04-30T01:24:52.385Z,41.03
2019-04-30T01:27:21.857Z,37.03
2019-04-30T01:29:51.414Z,45.03
2019-04-30T01:32:21.275Z,36.20
2019-04-30T01:34:53.883Z,37.37
2019-04-30T01:37:28.626Z,37.73
2019-04-30T01:39:53.217Z,32.70
2019-04-30T01:42:22.712Z,34.23
2019-04-30T01:44:53.810Z,38.73
2019-04-30T01:47:27.599Z,36.67
2019-04-30T01:49:55.809Z,39.07
2019-04-30T01:52:31.085Z,37.77
2019-04-30T01:54:59.425Z,37.77
2019-04-30T01:57:39.027Z,33.50
2019-04-30T02:00:19.446Z,32.80
2019-04-30T02:02:49.539Z,34.43
2019-04-30T02:05:19.100Z,36.10
2019-04-30T02:07:48.715Z,34.53
2019-04-30T02:10:18.719Z,34.40
2019-04-30T02:12:49.372Z,33.20
2019-04-30T02:15:19.336Z,36.50
2019-04-30T02:17:50.478Z,34.87
2019-04-30T02:20:20.126Z,38.30
2019-04-30T02:22:49.609Z,37.10
2019-04-30T02:25:19.518Z,41.07
2019-04-30T02:27:49.292Z,41.47
2019-04-30T02:30:20.921Z,41.17
2019-04-30T02:32:52.548Z,37.23
2019-04-30T02:35:46.494Z,38.17
2019-04-30T02:38:23.351Z,36.33
2019-04-30T02:40:54.244Z,38.40
2019-04-30T02:43:25.942Z,38.70
2019-04-30T02:45:59.951Z,41.97
2019-04-30T02:48:31.024Z,43.37
2019-04-30T02:51:03.410Z,39.33
2019-04-30T02:54:22.959Z,48.53
2019-04-30T02:56:54.591Z,40.37
2019-04-30T02:59:24.088Z,43.90
2019-04-30T03:01:53.611Z,47.63
2019-04-30T03:04:23.072Z,44.47
2019-04-30T03:06:52.558Z,48.10
2019-04-30T03:09:22.073Z,49.03
2019-04-30T03:11:51.559Z,45.53
2019-04-30T03:14:21.068Z,47.90
2019-04-30T03:17:02.813Z,53.13
2019-04-30T03:19:43.749Z,52.57
2019-04-30T03:22:24.995Z,48.90
2019-04-30T03:24:54.524Z,48.43
2019-04-30T03:27:24.753Z,45.30
2019-04-30T03:29:54.798Z,54.50
2019-04-30T03:32:24.274Z,48.47
2019-04-30T03:34:53.772Z,49.37
2019-04-30T03:37:23.254Z,49.50
2019-04-30T03:39:52.747Z,52.97
2019-04-30T03:42:22.246Z,54.70
2019-04-30T03:44:51.734Z,55.00
2019-04-30T03:47:21.259Z,52.83
2019-04-30T03:49:50.735Z,52.20
2019-04-30T03:52:20.243Z,54.90
2019-04-30T03:54:49.772Z,57.30
2019-04-30T03:57:20.364Z,52.80
2019-04-30T03:59:50.234Z,58.07
2019-04-30T04:02:44.612Z,54.23
2019-04-30T04:05:36.033Z,54.10
2019-04-30T04:08:29.348Z,52.50
2019-04-30T04:11:14.239Z,57.47
2019-04-30T04:13:43.732Z,54.90
2019-04-30T04:16:13.239Z,56.87
2019-04-30T04:18:42.703Z,53.33
2019-04-30T04:21:16.757Z,52.37
2019-04-30T04:23:43.339Z,58.00
2019-04-30T04:26:12.840Z,52.47
2019-04-30T04:28:43.502Z,53.00
2019-04-30T04:31:13.285Z,52.80
2019-04-30T04:33:42.803Z,57.80
2019-04-30T04:36:12.318Z,53.13
2019-04-30T04:38:41.823Z,46.17
2019-04-30T04:41:11.309Z,47.77
2019-04-30T04:43:40.796Z,48.17
2019-04-30T04:46:10.274Z,45.87
2019-04-30T04:48:39.793Z,51.23
2019-04-30T04:51:26.729Z,47.63
2019-04-30T04:53:40.477Z,49.67
2019-04-30T04:56:10.173Z,43.57
2019-04-30T04:58:40.259Z,45.70
2019-04-30T05:01:11.927Z,48.03
2019-04-30T05:03:41.323Z,47.57
2019-04-30T05:06:11.774Z,44.07
2019-04-30T05:08:41.617Z,47.80
2019-04-30T05:11:11.133Z,51.67
2019-04-30T05:13:40.637Z,49.77
2019-04-30T05:16:10.105Z,51.83
2019-04-30T05:18:39.629Z,45.90
2019-04-30T05:21:09.097Z,49.50
2019-04-30T05:23:41.063Z,45.87
2019-04-30T05:26:11.108Z,45.63
2019-04-30T05:28:40.978Z,53.17
2019-04-30T05:31:10.511Z,46.30
2019-04-30T05:33:41.806Z,50.10
2019-04-30T05:36:11.323Z,51.37
2019-04-30T05:38:40.809Z,48.03
2019-04-30T05:41:10.305Z,46.07
2019-04-30T05:43:39.773Z,44.57
2019-04-30T05:46:11.034Z,44.10
2019-04-30T05:48:40.538Z,46.43
2019-04-30T05:51:10.020Z,43.43
2019-04-30T05:53:39.579Z,39.53
2019-04-30T05:56:09.566Z,42.63
2019-04-30T05:58:39.778Z,39.40
2019-04-30T06:01:09.942Z,41.20
2019-04-30T06:03:39.598Z,39.43
2019-04-30T06:06:11.422Z,37.13
2019-04-30T06:08:48.953Z,37.43
2019-04-30T06:11:40.273Z,38.13
2019-04-30T06:14:23.398Z,38.63
2019-04-30T06:17:09.275Z,42.30
2019-04-30T06:19:39.154Z,37.40
2019-04-30T06:22:10.847Z,38.50
2019-04-30T06:24:40.093Z,43.07
2019-04-30T06:27:10.890Z,40.13
2019-04-30T06:29:41.087Z,37.37
2019-04-30T06:32:10.782Z,44.20
2019-04-30T06:34:42.010Z,42.17
2019-04-30T06:37:11.876Z,39.33
2019-04-30T06:39:41.376Z,38.27
2019-04-30T06:42:12.938Z,39.37
2019-04-30T06:44:42.875Z,41.57
2019-04-30T06:47:13.266Z,40.00
2019-04-30T06:49:42.768Z,38.87
2019-04-30T06:52:20.716Z,42.27
2019-04-30T06:54:43.405Z,39.67
2019-04-30T06:57:12.924Z,38.00
2019-04-30T06:59:42.429Z,36.57
2019-04-30T07:02:11.917Z,37.90
2019-04-30T07:04:41.405Z,38.00
2019-04-30T07:07:14.258Z,35.70
2019-04-30T07:09:55.795Z,33.77
2019-04-30T07:12:29.838Z,32.93
2019-04-30T07:14:59.061Z,32.67
2019-04-30T07:17:29.230Z,32.00
2019-04-30T07:19:59.694Z,32.83
2019-04-30T07:22:39.673Z,34.33
2019-04-30T07:25:00.725Z,29.07
2019-04-30T07:27:32.290Z,29.53
2019-04-30T07:30:01.350Z,36.07
2019-04-30T07:32:30.869Z,32.47
2019-04-30T07:35:00.321Z,33.73
2019-04-30T07:37:29.791Z,31.80
2019-04-30T07:39:59.292Z,34.20
2019-04-30T07:42:29.446Z,32.00
2019-04-30T07:45:00.652Z,30.00
2019-04-30T07:47:30.506Z,32.93
2019-04-30T07:50:00.687Z,30.83
2019-04-30T07:52:33.806Z,32.83
2019-04-30T07:55:01.782Z,34.53
2019-04-30T07:57:32.343Z,32.47
2019-04-30T08:00:02.189Z,33.80
2019-04-30T08:02:39.667Z,30.30
2019-04-30T08:05:31.431Z,37.13
2019-04-30T08:08:16.323Z,28.07
2019-04-30T08:10:32.095Z,30.53
2019-04-30T08:13:10.172Z,29.80
2019-04-30T08:15:32.705Z,29.70
2019-04-30T08:18:05.742Z,28.47
2019-04-30T08:20:33.357Z,27.07
2019-04-30T08:23:13.306Z,28.10
2019-04-30T08:25:33.982Z,27.30
2019-04-30T08:28:03.487Z,27.33
2019-04-30T08:30:32.984Z,23.67
2019-04-30T08:33:02.537Z,27.30
2019-04-30T08:35:32.027Z,27.00
2019-04-30T08:38:01.528Z,24.17
2019-04-30T08:40:31.044Z,22.00
2019-04-30T08:43:00.661Z,23.63
2019-04-30T08:45:34.402Z,23.90
2019-04-30T08:48:01.399Z,22.30
2019-04-30T08:50:31.159Z,25.33
2019-04-30T08:53:01.164Z,25.63
2019-04-30T08:55:30.773Z,25.40
2019-04-30T08:58:09.291Z,23.40
2019-04-30T09:00:31.993Z,23.87
2019-04-30T09:03:01.492Z,22.90
2019-04-30T09:05:49.930Z,20.87
2019-04-30T09:08:19.724Z,22.07
2019-04-30T09:10:49.219Z,20.87
2019-04-30T09:13:19.201Z,21.40
2019-04-30T09:15:49.264Z,22.50
2019-04-30T09:18:19.233Z,23.20
2019-04-30T09:20:49.519Z,22.43
2019-04-30T09:23:19.287Z,20.23
2019-04-30T09:25:49.698Z,23.40
2019-04-30T09:28:19.859Z,23.03
2019-04-30T09:30:49.555Z,20.57
2019-04-30T09:33:19.425Z,22.83
2019-04-30T09:35:49.642Z,25.83
2019-04-30T09:38:19.636Z,22.57
2019-04-30T09:40:50.736Z,23.33
2019-04-30T09:43:20.399Z,21.53
2019-04-30T09:45:49.910Z,23.57
2019-04-30T09:48:19.472Z,20.33
2019-04-30T09:50:49.863Z,21.37
2019-04-30T09:53:20.130Z,21.73
2019-04-30T09:55:49.980Z,21.77
2019-04-30T09:58:21.034Z,20.13
2019-04-30T10:00:50.797Z,21.87
2019-04-30T10:03:21.234Z,20.80
2019-04-30T10:05:51.212Z,20.10
2019-04-30T10:08:21.257Z,16.93
2019-04-30T10:11:02.960Z,20.30
2019-04-30T10:13:32.478Z,18.83
2019-04-30T10:16:10.784Z,17.30
2019-04-30T10:18:39.666Z,17.53
2019-04-30T10:21:09.422Z,15.30
2019-04-30T10:23:39.217Z,20.85
2019-04-30T10:26:08.945Z,16.10
2019-04-30T10:28:41.592Z,16.30
2019-04-30T10:31:11.105Z,19.07
2019-04-30T10:33:40.610Z,16.30
2019-04-30T10:36:09.575Z,17.13
2019-04-30T10:38:39.435Z,17.98
2019-04-30T10:41:09.109Z,17.40
2019-04-30T10:43:39.349Z,19.43
2019-04-30T10:46:09.844Z,18.50
2019-04-30T10:48:39.385Z,18.63
2019-04-30T10:51:09.100Z,17.87
2019-04-30T10:53:39.034Z,16.95
2019-04-30T10:56:09.697Z,16.10
2019-04-30T10:58:39.324Z,16.57
2019-04-30T11:01:09.616Z,15.70
2019-04-30T11:03:39.263Z,17.25
2019-04-30T11:06:08.803Z,16.23
2019-04-30T11:08:38.430Z,17.42
2019-04-30T11:11:08.043Z,16.20
2019-04-30T11:13:37.559Z,20.08
2019-04-30T11:16:13.274Z,17.07
2019-04-30T11:18:38.537Z,16.62
2019-04-30T11:21:09.774Z,14.33
2019-04-30T11:23:39.783Z,15.88
2019-04-30T11:26:09.518Z,15.55
2019-04-30T11:28:39.755Z,15.80
2019-04-30T11:31:27.143Z,15.93
2019-04-30T11:33:57.902Z,14.95
2019-04-30T11:36:29.214Z,17.52
2019-04-30T11:38:58.908Z,13.53
2019-04-30T11:41:32.596Z,13.65
2019-04-30T11:43:59.608Z,16.05
2019-04-30T11:46:54.927Z,14.03
2019-04-30T11:49:24.409Z,15.15
2019-04-30T11:51:53.906Z,14.20
2019-04-30T11:54:23.409Z,14.13
2019-04-30T11:56:52.885Z,12.90
2019-04-30T11:59:21.777Z,13.18
2019-04-30T12:01:52.829Z,13.45
2019-04-30T12:04:22.338Z,14.78
2019-04-30T12:06:52.270Z,15.53
2019-04-30T12:09:49.841Z,15.60
2019-04-30T12:12:19.383Z,14.18
2019-04-30T12:14:49.419Z,14.68
2019-04-30T12:17:19.292Z,14.40
2019-04-30T12:19:48.905Z,13.25
2019-04-30T12:22:20.210Z,14.30
2019-04-30T12:25:02.034Z,14.10
2019-04-30T12:27:20.778Z,14.18
2019-04-30T12:29:50.258Z,12.40
2019-04-30T12:32:21.349Z,13.98
2019-04-30T12:34:50.916Z,12.95
2019-04-30T12:37:20.425Z,14.18
2019-04-30T12:39:49.932Z,12.95
2019-04-30T12:42:19.423Z,11.80
2019-04-30T12:44:49.586Z,11.25
2019-04-30T12:47:21.721Z,11.33
2019-04-30T12:49:57.170Z,11.73
2019-04-30T12:52:51.630Z,10.75
2019-04-30T12:55:46.232Z,10.55
2019-04-30T12:58:15.727Z,11.83
2019-04-30T13:00:45.213Z,10.90
2019-04-30T13:03:14.730Z,10.95
2019-04-30T13:05:44.478Z,10.03
2019-04-30T13:08:14.680Z,9.65
2019-04-30T13:10:45.188Z,11.00
2019-04-30T13:13:15.517Z,11.88
2019-04-30T13:15:45.431Z,10.45
2019-04-30T13:18:14.965Z,10.35
2019-04-30T13:20:44.594Z,11.05
2019-04-30T13:23:14.141Z,10.75
2019-04-30T13:25:51.391Z,11.33
2019-04-30T13:28:18.599Z,9.33
2019-04-30T13:30:49.466Z,11.63
2019-04-30T13:33:25.498Z,8.90
2019-04-30T13:35:55.000Z,9.38
2019-04-30T13:38:44.944Z,9.38
2019-04-30T13:41:38.192Z,9.05
2019-04-30T13:44:13.374Z,11.25
2019-04-30T13:46:42.853Z,9.80
2019-04-30T13:49:12.418Z,9.60
2019-04-30T13:51:42.985Z,11.48
2019-04-30T13:54:13.326Z,9.80
2019-04-30T13:56:42.825Z,9.73
2019-04-30T13:59:12.291Z,10.63
2019-04-30T14:01:41.782Z,10.80
2019-04-30T14:04:33.127Z,10.45
2019-04-30T14:07:24.765Z,9.15
2019-04-30T14:09:54.371Z,10.28
2019-04-30T14:12:23.878Z,9.20
2019-04-30T14:14:53.345Z,10.50
2019-04-30T14:17:23.665Z,11.78
2019-04-30T14:19:53.250Z,11.45
2019-04-30T14:22:22.735Z,11.97
2019-04-30T14:24:52.255Z,11.68
2019-04-30T14:27:21.747Z,10.20
2019-04-30T14:29:51.227Z,13.65
2019-04-30T14:32:20.736Z,9.98
2019-04-30T14:34:50.653Z,10.88
2019-04-30T14:37:20.485Z,10.05
2019-04-30T14:39:50.442Z,10.23
2019-04-30T14:42:21.177Z,11.63
2019-04-30T14:44:56.151Z,11.63
2019-04-30T14:47:41.269Z,11.75
2019-04-30T14:50:14.272Z,11.53
2019-04-30T14:53:17.952Z,11.08
2019-04-30T14:56:12.158Z,10.80
2019-04-30T14:59:09.640Z,10.78
2019-04-30T15:01:51.715Z,11.40
2019-04-30T15:04:21.015Z,11.45
2019-04-30T15:06:50.657Z,9.35
2019-04-30T15:09:20.425Z,14.03
2019-04-30T15:11:49.932Z,11.85
2019-04-30T15:14:19.405Z,14.60
2019-04-30T15:16:48.903Z,10.63
2019-04-30T15:19:18.372Z,10.80
2019-04-30T15:21:47.864Z,10.85
2019-04-30T15:24:25.110Z,10.70
2019-04-30T15:26:57.803Z,10.90
2019-04-30T15:29:25.882Z,11.33
2019-04-30T15:31:55.395Z,11.20
2019-04-30T15:34:24.888Z,10.88
2019-04-30T15:36:54.393Z,11.60
2019-04-30T15:39:39.275Z,11.38
2019-04-30T15:42:10.487Z,11.97
2019-04-30T15:44:42.659Z,11.22
2019-04-30T15:47:11.436Z,11.22
2019-04-30T15:49:40.954Z,12.80
2019-04-30T15:52:10.999Z,11.25
2019-04-30T15:54:40.756Z,10.88
2019-04-30T15:57:10.252Z,11.83
2019-04-30T15:59:46.443Z,11.60
2019-04-30T16:02:34.924Z,13.38
2019-04-30T16:05:39.210Z,11.55
2019-04-30T16:08:31.387Z,12.13
2019-04-30T16:11:25.961Z,11.88
2019-04-30T16:14:20.154Z,12.00
2019-04-30T16:17:14.757Z,13.48
2019-04-30T16:19:44.259Z,11.65
2019-04-30T16:22:13.987Z,13.65
2019-04-30T16:24:43.467Z,12.37
2019-04-30T16:27:12.967Z,13.00
2019-04-30T16:29:42.472Z,13.90
2019-04-30T16:32:12.097Z,12.60
2019-04-30T16:34:41.600Z,12.95
2019-04-30T16:37:11.112Z,12.23
2019-04-30T16:39:40.631Z,13.53
2019-04-30T16:42:10.112Z,14.60
2019-04-30T16:44:39.633Z,12.78
2019-04-30T16:47:14.588Z,14.03
2019-04-30T16:49:40.240Z,13.20
2019-04-30T16:52:09.764Z,12.58
2019-04-30T16:54:39.566Z,13.60
2019-04-30T16:57:10.274Z,13.10
2019-04-30T16:59:42.280Z,13.00
2019-04-30T17:02:13.690Z,13.22
2019-04-30T17:05:00.116Z,12.63
2019-04-30T17:07:56.603Z,13.15
2019-04-30T17:10:50.316Z,13.65
2019-04-30T17:13:38.907Z,12.93
2019-04-30T17:16:11.349Z,14.03
2019-04-30T17:18:41.835Z,13.80
2019-04-30T17:21:11.444Z,13.38
2019-04-30T17:23:40.993Z,13.85
2019-04-30T17:26:10.507Z,21.17
2019-04-30T17:28:40.023Z,13.93
2019-04-30T17:31:09.811Z,12.58
2019-04-30T17:33:39.625Z,14.53
2019-04-30T17:36:11.061Z,15.28
2019-04-30T17:38:40.300Z,17.48
2019-04-30T17:41:09.785Z,14.20
2019-04-30T17:43:39.431Z,12.05
2019-04-30T17:46:10.472Z,17.67
2019-04-30T17:48:39.971Z,13.40
2019-04-30T17:51:09.538Z,13.58
2019-04-30T17:53:58.746Z,12.55
2019-04-30T17:56:28.518Z,14.83
2019-04-30T17:58:58.035Z,13.13
2019-04-30T18:01:27.722Z,23.60
2019-04-30T18:03:58.778Z,29.50
2019-04-30T18:06:28.437Z,19.65
2019-04-30T18:08:57.943Z,21.75
2019-04-30T18:11:29.454Z,18.23
2019-04-30T18:13:59.089Z,16.95
2019-04-30T18:16:28.804Z,14.00
2019-04-30T18:19:08.829Z,13.60
2019-04-30T18:21:46.112Z,14.85
2019-04-30T18:24:36.272Z,15.30
2019-04-30T18:27:16.367Z,16.57
2019-04-30T18:29:45.848Z,14.23
2019-04-30T18:32:15.671Z,16.23
2019-04-30T18:34:45.177Z,16.57
2019-04-30T18:37:14.675Z,16.45
2019-04-30T18:39:44.261Z,17.13
2019-04-30T18:42:13.747Z,15.88
2019-04-30T18:44:43.239Z,16.40
2019-04-30T18:47:12.753Z,14.98
2019-04-30T18:49:42.234Z,15.43
2019-04-30T18:52:11.931Z,17.37
2019-04-30T18:54:41.433Z,16.23
2019-04-30T18:57:10.912Z,16.10
2019-04-30T18:59:40.401Z,18.10
2019-04-30T19:02:12.337Z,16.10
2019-04-30T19:04:41.847Z,15.70
2019-04-30T19:07:23.542Z,18.77
2019-04-30T19:10:12.080Z,17.63
2019-04-30T19:13:03.041Z,18.20
2019-04-30T19:16:21.335Z,19.83
2019-04-30T19:18:43.195Z,23.60
2019-04-30T19:21:12.718Z,17.97
2019-04-30T19:23:42.216Z,19.40
2019-04-30T19:26:11.727Z,17.07
2019-04-30T19:28:41.211Z,19.70
2019-04-30T19:31:11.693Z,20.20
2019-04-30T19:33:41.395Z,19.83
2019-04-30T19:36:10.246Z,17.93
2019-04-30T19:38:39.761Z,17.90
2019-04-30T19:41:10.863Z,19.33
2019-04-30T19:43:40.460Z,19.23
2019-04-30T19:46:09.977Z,19.80
2019-04-30T19:48:39.511Z,18.47
2019-04-30T19:51:08.991Z,19.37
2019-04-30T19:53:39.647Z,19.47
2019-04-30T19:56:09.140Z,21.17
2019-04-30T19:58:54.322Z,19.70
2019-04-30T20:01:09.785Z,20.37
2019-04-30T20:03:40.703Z,19.10
2019-04-30T20:06:10.612Z,18.40
2019-04-30T20:08:40.134Z,19.50
2019-04-30T20:11:09.635Z,21.07
2019-04-30T20:13:40.444Z,18.40
2019-04-30T20:16:10.038Z,20.48
2019-04-30T20:18:39.544Z,20.67
2019-04-30T20:21:13.031Z,22.20
2019-04-30T20:23:42.520Z,20.07
2019-04-30T20:26:12.015Z,19.60
2019-04-30T20:28:42.454Z,21.20
2019-04-30T20:31:12.266Z,22.17
2019-04-30T20:33:41.757Z,22.60
2019-04-30T20:36:11.269Z,22.37
2019-04-30T20:38:59.671Z,24.37
2019-04-30T20:41:30.053Z,23.60
2019-04-30T20:43:59.558Z,24.67
2019-04-30T20:46:34.788Z,23.53
2019-04-30T20:49:00.214Z,24.33
2019-04-30T20:51:29.713Z,23.43
2019-04-30T20:53:59.297Z,22.57
2019-04-30T20:56:29.239Z,23.87
2019-04-30T20:59:04.080Z,27.00
2019-04-30T21:01:30.299Z,23.77
2019-04-30T21:03:59.815Z,23.83
2019-04-30T21:06:29.810Z,25.70
2019-04-30T21:08:59.433Z,25.13
2019-04-30T21:11:28.929Z,23.67
2019-04-30T21:13:59.085Z,21.10
2019-04-30T21:16:28.846Z,26.07
2019-04-30T21:18:58.346Z,26.50
2019-04-30T21:21:28.754Z,29.03
2019-04-30T21:23:58.563Z,29.93
2019-04-30T21:26:28.076Z,26.07
2019-04-30T21:29:10.400Z,26.13
2019-04-30T21:31:44.050Z,25.23
2019-04-30T21:34:33.553Z,27.73
2019-04-30T21:37:03.029Z,27.93
2019-04-30T21:39:32.558Z,29.87
2019-04-30T21:42:02.055Z,28.47
2019-04-30T21:44:31.602Z,30.37
2019-04-30T21:47:01.094Z,27.03
2019-04-30T21:49:30.616Z,27.47
2019-04-30T21:52:00.121Z,28.20
2019-04-30T21:54:30.496Z,28.47
2019-04-30T21:57:00.311Z,28.77
2019-04-30T21:59:30.442Z,28.17
2019-04-30T22:02:00.429Z,30.97
2019-04-30T22:04:29.911Z,27.20
2019-04-30T22:06:59.574Z,27.57
2019-04-30T22:09:29.127Z,30.73
2019-04-30T22:11:59.202Z,32.27
2019-04-30T22:14:28.833Z,33.73
2019-04-30T22:16:59.417Z,32.97
2019-04-30T22:19:29.110Z,29.37
2019-04-30T22:21:59.452Z,27.07
2019-04-30T22:24:30.529Z,26.40
2019-04-30T22:27:00.075Z,26.60
2019-04-30T22:29:39.047Z,28.30
2019-04-30T22:32:00.692Z,28.60
2019-04-30T22:34:30.192Z,28.80
2019-04-30T22:36:59.676Z,28.90
2019-04-30T22:39:54.372Z,30.10
2019-04-30T22:42:33.660Z,24.80
2019-04-30T22:45:05.902Z,24.73
2019-04-30T22:47:35.414Z,25.70
2019-04-30T22:50:07.368Z,28.43
2019-04-30T22:52:36.864Z,31.77
2019-04-30T22:55:07.450Z,27.20
2019-04-30T22:57:36.941Z,25.20
2019-04-30T23:00:09.764Z,29.37
2019-04-30T23:02:56.246Z,33.37
2019-04-30T23:05:25.773Z,28.80
2019-04-30T23:07:55.267Z,29.20
2019-04-30T23:10:24.757Z,28.00
2019-04-30T23:12:54.258Z,28.73
2019-04-30T23:15:23.737Z,29.53
2019-04-30T23:17:53.236Z,27.23
2019-04-30T23:20:22.783Z,27.10
2019-04-30T23:22:51.636Z,29.23
2019-04-30T23:25:21.126Z,27.27
2019-04-30T23:27:50.641Z,28.43
2019-04-30T23:30:20.117Z,27.80
2019-04-30T23:32:49.623Z,28.43
2019-04-30T23:35:19.082Z,28.30
2019-04-30T23:37:48.593Z,30.53
2019-04-30T23:40:33.646Z,30.33
2019-04-30T23:43:03.112Z,34.10
2019-04-30T23:45:32.611Z,38.50
2019-04-30T23:48:02.077Z,34.57
2019-04-30T23:50:31.616Z,31.07
2019-04-30T23:53:01.091Z,34.53
2019-04-30T23:55:30.608Z,33.80
2019-04-30T23:58:00.104Z,35.00
